createdAt,value
2018-04-06T00:02:06.485Z,100415.09
2018-04-06T00:04:37.407Z,100413.13
2018-04-06T00:07:08.360Z,100421.23
2018-04-06T00:09:39.208Z,100421.47
2018-04-06T00:12:10.198Z,100417.07
2018-04-06T00:14:41.080Z,100412.70
2018-04-06T00:17:12.461Z,100420.34
2018-04-06T00:19:43.351Z,100422.33
2018-04-06T00:22:14.244Z,100425.14
2018-04-06T00:24:45.118Z,100426.75
2018-04-06T00:27:16.424Z,100431.72
2018-04-06T00:29:47.278Z,100434.61
2018-04-06T00:32:17.952Z,100443.14
2018-04-06T00:34:49.331Z,100451.03
2018-04-06T00:37:19.974Z,100454.80
2018-04-06T00:39:50.590Z,100457.23
2018-04-06T00:42:21.654Z,100469.00
2018-04-06T00:44:52.487Z,100476.70
2018-04-06T00:47:23.505Z,100478.44
2018-04-06T00:49:54.137Z,100476.91
2018-04-06T00:52:24.611Z,100484.83
2018-04-06T00:54:55.595Z,100486.06
2018-04-06T00:57:26.539Z,100485.99
2018-04-06T00:59:57.058Z,100494.19
2018-04-06T01:02:27.560Z,100501.10
2018-04-06T01:04:58.543Z,100505.59
2018-04-06T01:07:29.481Z,100510.69
2018-04-06T01:10:00.472Z,100521.70
2018-04-06T01:12:31.556Z,100530.72
2018-04-06T01:15:02.499Z,100526.51
2018-04-06T01:17:33.535Z,100537.06
2018-04-06T01:20:03.746Z,100534.31
2018-04-06T01:22:34.501Z,100537.59
2018-04-06T01:25:05.513Z,100543.05
2018-04-06T01:27:36.225Z,100550.11
2018-04-06T01:30:08.874Z,100551.49
2018-04-06T01:32:38.254Z,100566.34
2018-04-06T01:35:08.861Z,100571.48
2018-04-06T01:37:39.713Z,100566.67
2018-04-06T01:40:10.436Z,100581.09
2018-04-06T01:42:41.653Z,100580.20
2018-04-06T01:45:12.557Z,100581.98
2018-04-06T01:47:43.591Z,100577.78
2018-04-06T01:50:14.540Z,100587.69
2018-04-06T01:52:45.601Z,100594.45
2018-04-06T01:55:16.616Z,100590.75
2018-04-06T01:57:47.529Z,100590.20
2018-04-06T02:00:18.560Z,100596.93
2018-04-06T02:02:49.585Z,100594.58
2018-04-06T02:05:21.506Z,100597.34
2018-04-06T02:07:52.215Z,100599.92
2018-04-06T02:10:22.696Z,100597.81
2018-04-06T02:12:53.585Z,100603.64
2018-04-06T02:15:24.249Z,100616.28
2018-04-06T02:17:54.944Z,100616.47
2018-04-06T02:20:25.620Z,100607.46
2018-04-06T02:22:56.577Z,100613.64
2018-04-06T02:25:27.608Z,100620.54
2018-04-06T02:27:58.530Z,100630.52
2018-04-06T02:30:29.498Z,100633.52
2018-04-06T02:33:00.610Z,100631.91
2018-04-06T02:35:31.504Z,100644.77
2018-04-06T02:38:02.203Z,100632.56
2018-04-06T02:40:32.848Z,100644.17
2018-04-06T02:43:03.902Z,100645.90
2018-04-06T02:45:34.598Z,100656.91
2018-04-06T02:48:05.515Z,100666.87
2018-04-06T02:50:36.123Z,100666.00
2018-04-06T02:53:06.827Z,100665.25
2018-04-06T02:55:37.556Z,100677.23
2018-04-06T02:58:09.117Z,100674.17
2018-04-06T03:00:39.838Z,100686.78
2018-04-06T03:03:10.697Z,100696.45
2018-04-06T03:05:41.537Z,100692.28
2018-04-06T03:08:12.459Z,100707.02
2018-04-06T03:10:43.432Z,100710.08
2018-04-06T03:13:14.394Z,100723.92
2018-04-06T03:15:45.368Z,100716.31
2018-04-06T03:18:16.949Z,100734.74
2018-04-06T03:20:46.825Z,100736.21
2018-04-06T03:23:17.625Z,100739.59
2018-04-06T03:25:48.481Z,100756.53
2018-04-06T03:28:19.542Z,100756.98
2018-04-06T03:30:50.580Z,100760.16
2018-04-06T03:33:21.653Z,100766.41
2018-04-06T03:35:52.663Z,100771.39
2018-04-06T03:38:23.548Z,100772.34
2018-04-06T03:40:54.449Z,100764.59
2018-04-06T03:43:25.641Z,100775.50
2018-04-06T03:45:56.545Z,100775.13
2018-04-06T03:48:27.571Z,100789.16
2018-04-06T03:50:58.372Z,100790.77
2018-04-06T03:53:29.442Z,100790.91
2018-04-06T03:56:00.128Z,100792.69
2018-04-06T03:58:30.684Z,100797.00
2018-04-06T04:01:01.488Z,100807.42
2018-04-06T04:03:32.528Z,100817.67
2018-04-06T04:06:03.491Z,100821.27
2018-04-06T04:08:34.532Z,100828.94
2018-04-06T04:11:05.507Z,100834.06
2018-04-06T04:13:36.539Z,100838.38
2018-04-06T04:16:06.998Z,100837.63
2018-04-06T04:18:37.564Z,100844.71
2018-04-06T04:21:08.533Z,100841.56
2018-04-06T04:23:39.229Z,100849.63
2018-04-06T04:26:09.836Z,100850.41
2018-04-06T04:28:40.637Z,100850.80
2018-04-06T04:31:11.664Z,100853.50
2018-04-06T04:33:42.540Z,100856.36
2018-04-06T04:36:13.542Z,100860.82
2018-04-06T04:38:44.621Z,100869.88
2018-04-06T04:41:15.577Z,100878.63
2018-04-06T04:43:46.777Z,100884.69
2018-04-06T04:46:17.555Z,100880.95
2018-04-06T04:48:48.589Z,100887.56
2018-04-06T04:51:20.221Z,100899.25
2018-04-06T04:53:49.993Z,100898.64
2018-04-06T04:56:20.568Z,100908.62
2018-04-06T04:58:51.222Z,100909.05
2018-04-06T05:01:21.926Z,100918.25
2018-04-06T05:03:52.448Z,100924.22
2018-04-06T05:06:23.299Z,100936.37
2018-04-06T05:08:54.378Z,100934.09
2018-04-06T05:11:25.340Z,100939.58
2018-04-06T05:13:56.395Z,100944.16
2018-04-06T05:16:27.419Z,100947.41
2018-04-06T05:18:58.472Z,100958.63
2018-04-06T05:21:29.487Z,100958.14
2018-04-06T05:24:00.558Z,100961.50
2018-04-06T05:26:31.429Z,100965.92
2018-04-06T05:29:02.455Z,100973.17
2018-04-06T05:31:33.112Z,100985.66
2018-04-06T05:34:04.699Z,100992.86
2018-04-06T05:36:39.769Z,100993.36
2018-04-06T05:39:09.192Z,101001.47
2018-04-06T05:41:38.737Z,101012.56
2018-04-06T05:44:08.266Z,101017.95
2018-04-06T05:46:38.955Z,101017.59
2018-04-06T05:49:10.552Z,101021.32
2018-04-06T05:51:41.234Z,101017.90
2018-04-06T05:54:11.932Z,101021.24
2018-04-06T05:56:42.701Z,101023.81
2018-04-06T05:59:13.136Z,101021.81
2018-04-06T06:01:43.665Z,101025.48
2018-04-06T06:04:14.817Z,101022.09
2018-04-06T06:06:45.638Z,101030.02
2018-04-06T06:09:16.435Z,101032.84
2018-04-06T06:11:47.772Z,101028.12
2018-04-06T06:14:18.749Z,101032.80
2018-04-06T06:16:49.179Z,101035.86
2018-04-06T06:19:19.882Z,101048.44
2018-04-06T06:21:50.559Z,101040.85
2018-04-06T06:24:21.544Z,101048.69
2018-04-06T06:26:52.276Z,101048.58
2018-04-06T06:29:22.932Z,101061.03
2018-04-06T06:31:54.533Z,101063.92
2018-04-06T06:34:24.771Z,101068.20
2018-04-06T06:36:55.182Z,101072.06
2018-04-06T06:39:25.078Z,101071.47
2018-04-06T06:41:55.688Z,101077.38
2018-04-06T06:44:27.335Z,101086.02
2018-04-06T06:46:58.034Z,101085.95
2018-04-06T06:49:28.549Z,101101.23
2018-04-06T06:51:59.600Z,101099.69
2018-04-06T06:54:30.252Z,101101.42
2018-04-06T06:57:00.980Z,101109.23
2018-04-06T06:59:31.585Z,101103.03
2018-04-06T07:02:02.264Z,101107.89
2018-04-06T09:35:30.112Z,101180.45
2018-04-06T09:37:59.416Z,101180.16
2018-04-06T09:40:28.680Z,101180.80
2018-04-06T09:42:58.052Z,101176.22
2018-04-06T09:45:27.333Z,101175.25
2018-04-06T09:47:56.660Z,101174.56
2018-04-06T09:50:26.097Z,101182.23
2018-04-06T09:52:55.384Z,101181.95
2018-04-06T09:55:24.630Z,101179.98
2018-04-06T09:57:53.966Z,101182.18
2018-04-06T10:00:28.607Z,101181.45
2018-04-06T10:02:57.810Z,101182.72
2018-04-06T10:05:27.081Z,101185.17
2018-04-06T10:07:56.316Z,101185.38
2018-04-06T10:10:25.648Z,101180.03
2018-04-06T10:12:54.673Z,101178.38
2018-04-06T10:15:23.832Z,101168.73
2018-04-06T10:17:52.855Z,101155.78
2018-04-06T10:20:21.825Z,101155.09
2018-04-06T10:22:50.786Z,101164.20
2018-04-06T10:25:19.848Z,101156.03
2018-04-06T10:27:48.906Z,101151.14
2018-04-06T10:30:18.138Z,101153.27
2018-04-06T10:32:47.141Z,101150.34
2018-04-06T10:35:16.107Z,101149.94
2018-04-06T10:37:45.189Z,101154.27
2018-04-06T10:40:14.287Z,101145.63
2018-04-06T10:42:43.266Z,101136.16
2018-04-06T10:45:12.222Z,101146.13
2018-04-06T10:47:41.278Z,101143.17
2018-04-06T10:50:10.316Z,101141.34
2018-04-06T10:52:39.269Z,101146.01
2018-04-06T10:55:08.300Z,101142.66
2018-04-06T10:57:37.298Z,101141.27
2018-04-06T11:00:06.309Z,101134.27
2018-04-06T11:02:35.416Z,101135.56
2018-04-06T11:05:04.462Z,101132.26
2018-04-06T11:07:33.517Z,101142.75
2018-04-06T11:10:02.602Z,101140.12
2018-04-06T11:12:31.647Z,101142.55
2018-04-06T11:15:00.638Z,101145.34
2018-04-06T11:17:29.707Z,101144.39
2018-04-06T11:19:58.686Z,101132.05
2018-04-06T11:22:27.522Z,101136.69
2018-04-06T11:24:56.609Z,101133.70
2018-04-06T11:27:25.618Z,101133.88
2018-04-06T11:29:54.641Z,101135.84
2018-04-06T11:32:23.722Z,101136.31
2018-04-06T11:34:52.721Z,101138.72
2018-04-06T11:37:39.535Z,101138.20
2018-04-06T11:40:09.475Z,101133.96
2018-04-06T11:43:03.702Z,101138.34
2018-04-06T11:45:32.756Z,101130.59
2018-04-06T11:48:01.812Z,101124.33
2018-04-06T11:50:30.795Z,101118.75
2018-04-06T11:52:59.811Z,101118.95
2018-04-06T11:55:28.867Z,101133.05
2018-04-06T11:57:58.779Z,101136.80
2018-04-06T12:00:27.822Z,101125.37
2018-04-06T12:02:56.869Z,101130.38
2018-04-06T12:07:54.012Z,101119.84
2018-04-06T12:10:23.288Z,101123.84
2018-04-06T12:12:52.105Z,101114.47
2018-04-06T12:15:21.407Z,101122.59
2018-04-06T12:17:50.624Z,101120.38
2018-04-06T12:20:19.594Z,101113.14
2018-04-06T12:22:48.559Z,101108.37
2018-04-06T12:25:17.691Z,101103.59
2018-04-06T12:27:46.679Z,101101.53
2018-04-06T12:30:15.719Z,101096.26
2018-04-06T12:32:44.781Z,101099.19
2018-04-06T12:35:13.777Z,101090.86
2018-04-06T12:37:42.563Z,101090.89
2018-04-06T12:40:11.750Z,101090.98
2018-04-06T12:42:40.796Z,101091.00
2018-04-06T12:45:09.714Z,101076.94
2018-04-06T12:47:38.741Z,101062.95
2018-04-06T12:50:07.739Z,101069.47
2018-04-06T12:52:36.737Z,101070.98
2018-04-06T12:55:05.862Z,101060.36
2018-04-06T12:57:34.799Z,101064.42
2018-04-06T13:00:03.716Z,101053.34
2018-04-06T13:02:32.777Z,101064.56
2018-04-06T13:05:01.751Z,101056.59
2018-04-06T13:07:30.945Z,101059.35
2018-04-06T13:10:00.008Z,101062.56
2018-04-06T13:12:29.012Z,101059.05
2018-04-06T13:14:57.968Z,101050.58
2018-04-06T13:17:27.023Z,101058.17
2018-04-06T13:19:55.996Z,101053.37
2018-04-06T13:22:25.260Z,101053.72
2018-04-06T13:24:54.324Z,101054.45
2018-04-06T13:27:23.051Z,101044.20
2018-04-06T13:29:52.523Z,101048.91
2018-04-06T13:32:21.597Z,101043.25
2018-04-06T13:34:51.332Z,101041.77
2018-04-06T13:37:20.286Z,101045.03
2018-04-06T13:39:49.304Z,101037.63
2018-04-06T13:42:18.369Z,101035.72
2018-04-06T13:44:47.313Z,101041.72
2018-04-06T13:47:16.366Z,101037.67
2018-04-06T13:49:45.436Z,101040.07
2018-04-06T13:52:14.405Z,101041.47
2018-04-06T13:54:43.497Z,101039.32
2018-04-06T13:57:12.493Z,101039.73
2018-04-06T13:59:42.986Z,101035.49
2018-04-06T14:02:12.045Z,101039.41
2018-04-06T14:04:41.070Z,101037.50
2018-04-06T14:07:10.042Z,101036.28
2018-04-06T14:09:39.091Z,101037.23
2018-04-06T14:12:08.132Z,101026.58
2018-04-06T14:14:36.857Z,101032.64
2018-04-06T14:17:05.903Z,101036.55
2018-04-06T14:19:34.925Z,101032.81
2018-04-06T14:22:03.942Z,101036.08
2018-04-06T14:24:32.992Z,101042.81
2018-04-06T14:27:01.968Z,101041.91
2018-04-06T14:29:30.994Z,101039.30
2018-04-06T14:32:00.060Z,101028.02
2018-04-06T14:34:29.059Z,101043.45
2018-04-06T14:36:58.243Z,101041.27
2018-04-06T14:39:27.284Z,101044.59
2018-04-06T14:41:56.308Z,101042.23
2018-04-06T14:44:25.405Z,101044.27
2018-04-06T14:46:54.450Z,101041.55
2018-04-06T14:49:23.447Z,101039.99
2018-04-06T14:51:52.503Z,101046.69
2018-04-06T14:54:21.614Z,101038.23
2018-04-06T14:56:50.688Z,101050.70
2018-04-06T14:59:19.651Z,101049.11
2018-04-06T15:01:48.713Z,101051.35
2018-04-06T15:04:17.698Z,101046.67
2018-04-06T15:06:47.177Z,101058.73
2018-04-06T15:09:18.294Z,101050.48
2018-04-06T15:11:47.279Z,101047.20
2018-04-06T15:14:16.261Z,101051.40
2018-04-06T15:16:45.279Z,101050.02
2018-04-06T15:19:14.302Z,101043.03
2018-04-06T15:21:43.865Z,101043.99
2018-04-06T15:24:12.933Z,101044.39
2018-04-06T15:26:42.986Z,101040.44
2018-04-06T15:29:12.009Z,101040.53
2018-04-06T15:31:41.165Z,101038.59
2018-04-06T15:34:10.458Z,101041.67
2018-04-06T15:36:39.412Z,101038.89
2018-04-06T15:39:08.478Z,101040.59
2018-04-06T15:41:37.996Z,101046.95
2018-04-06T15:44:07.305Z,101045.50
2018-04-06T15:46:36.614Z,101049.66
2018-04-06T15:49:05.316Z,101045.67
2018-04-06T15:51:34.295Z,101043.74
2018-04-06T15:54:03.424Z,101038.20
2018-04-06T15:56:32.395Z,101048.70
2018-04-06T15:59:01.390Z,101046.80
2018-04-06T16:01:30.599Z,101044.19
2018-04-06T16:04:00.469Z,101047.27
2018-04-06T16:06:29.630Z,101037.96
2018-04-06T16:08:58.705Z,101053.32
2018-04-06T16:11:27.726Z,101057.60
2018-04-06T16:13:56.607Z,101059.93
2018-04-06T16:16:25.569Z,101053.13
2018-04-06T16:18:54.369Z,101052.55
2018-04-06T16:21:23.688Z,101057.33
2018-04-06T16:23:52.677Z,101054.34
2018-04-06T16:26:21.695Z,101054.94
2018-04-06T16:28:50.711Z,101055.05
2018-04-06T16:31:19.856Z,101060.09
2018-04-06T16:33:48.850Z,101056.06
2018-04-06T16:36:18.442Z,101061.20
2018-04-06T16:38:49.630Z,101062.62
2018-04-06T16:41:19.081Z,101061.69
2018-04-06T16:43:48.664Z,101055.05
2018-04-06T16:46:17.646Z,101057.69
2018-04-06T16:48:46.696Z,101059.23
2018-04-06T16:51:15.808Z,101060.62
2018-04-06T16:53:44.763Z,101061.41
2018-04-06T16:56:13.743Z,101061.02
2018-04-06T16:58:42.801Z,101066.83
2018-04-06T17:01:16.088Z,101061.95
2018-04-06T17:03:47.483Z,101066.73
2018-04-06T19:20:30.920Z,101173.52
2018-04-06T19:22:59.813Z,101172.44
2018-04-06T19:25:28.796Z,101166.25
2018-04-06T19:27:57.885Z,101168.39
2018-04-06T19:30:26.916Z,101166.73
2018-04-06T19:32:55.990Z,101166.09
2018-04-06T19:35:25.138Z,101165.42
2018-04-06T19:37:54.155Z,101172.61
2018-04-06T19:40:23.175Z,101174.88
2018-04-06T19:42:52.268Z,101161.16
2018-04-06T19:45:21.288Z,101161.27
2018-04-06T19:47:50.248Z,101166.97
2018-04-06T19:50:19.381Z,101165.55
2018-04-06T19:52:48.431Z,101157.42
2018-04-06T19:55:17.791Z,101158.21
2018-04-06T19:57:46.864Z,101161.72
2018-04-06T20:00:16.159Z,101164.16
2018-04-06T20:02:45.175Z,101156.97
2018-04-06T20:05:14.316Z,101150.63
2018-04-06T20:07:43.391Z,101147.62
2018-04-06T20:10:12.381Z,101151.73
2018-04-06T20:12:41.512Z,101158.56
2018-04-06T20:15:10.507Z,101159.12
2018-04-06T20:17:39.499Z,101153.35
2018-04-06T20:20:08.545Z,101165.25
2018-04-06T20:22:37.980Z,101164.91
2018-04-06T20:25:07.019Z,101161.28
2018-04-06T20:27:36.359Z,101167.42
2018-04-06T20:30:05.705Z,101172.19
2018-04-06T20:32:35.022Z,101177.18
2018-04-06T20:35:04.105Z,101173.05
2018-04-06T20:37:32.981Z,101174.52
2018-04-06T20:40:02.270Z,101174.45
2018-04-06T20:42:31.632Z,101175.23
2018-04-06T20:45:00.748Z,101175.27
2018-04-06T20:47:30.230Z,101172.92
2018-04-06T20:49:59.527Z,101168.47
2018-04-06T20:52:28.788Z,101175.97
2018-04-06T20:54:58.315Z,101180.06
2018-04-06T20:57:27.620Z,101174.45
2018-04-06T20:59:56.900Z,101172.01
2018-04-06T21:02:26.204Z,101175.08
2018-04-06T21:04:55.604Z,101172.30
2018-04-06T21:07:24.896Z,101163.71
2018-04-06T21:09:54.204Z,101162.55
2018-04-06T21:12:23.465Z,101174.61
2018-04-06T21:14:52.745Z,101180.58
2018-04-06T21:17:22.262Z,101178.66
2018-04-06T21:19:51.544Z,101178.02
2018-04-06T21:22:20.669Z,101183.28
2018-04-06T21:24:50.219Z,101181.55
2018-04-06T21:27:19.478Z,101177.21
2018-04-06T21:29:48.660Z,101177.53
2018-04-06T21:32:18.093Z,101176.95
2018-04-06T21:34:47.449Z,101181.13
2018-04-06T21:37:16.695Z,101177.30
2018-04-06T21:39:46.029Z,101173.44
2018-04-06T21:42:15.323Z,101169.89
2018-04-06T21:44:44.492Z,101175.39
2018-04-06T21:47:13.730Z,101185.16
2018-04-06T21:49:43.022Z,101180.16
2018-04-06T21:52:12.318Z,101181.30
2018-04-06T21:54:41.683Z,101181.94
2018-04-06T21:57:10.802Z,101181.45
2018-04-06T21:59:40.186Z,101174.55
2018-04-06T22:02:09.394Z,101174.98
2018-04-06T22:04:38.740Z,101180.59
2018-04-06T22:07:08.037Z,101175.59
2018-04-06T22:09:37.297Z,101178.16
2018-04-06T22:12:06.560Z,101183.42
2018-04-06T22:14:35.841Z,101190.77
2018-04-06T22:17:05.188Z,101194.71
2018-04-06T22:19:34.483Z,101189.75
2018-04-06T22:22:03.767Z,101190.05
2018-04-06T22:24:33.108Z,101191.20
2018-04-06T22:27:02.483Z,101194.23
2018-04-06T22:29:31.736Z,101192.03
2018-04-06T22:32:01.072Z,101192.87
2018-04-06T22:34:30.361Z,101200.39
2018-04-06T22:36:59.611Z,101194.33
2018-04-06T22:39:29.100Z,101190.73
2018-04-06T22:41:58.400Z,101194.23
2018-04-06T22:44:28.068Z,101199.50
2018-04-06T22:46:57.536Z,101193.14
2018-04-06T22:49:30.205Z,101189.02
2018-04-06T22:51:59.572Z,101187.22
2018-04-06T22:54:30.248Z,101187.81
2018-04-06T22:57:00.945Z,101187.93
2018-04-06T22:59:30.451Z,101183.04
2018-04-06T23:02:02.089Z,101184.84
2018-04-06T23:04:32.785Z,101186.67
2018-04-06T23:07:04.475Z,101195.56
2018-04-06T23:09:35.167Z,101199.80
2018-04-06T23:12:05.943Z,101195.36
2018-04-06T23:14:36.660Z,101197.53
2018-04-06T23:17:07.852Z,101194.55
2018-04-06T23:19:38.505Z,101195.69
2018-04-06T23:22:09.220Z,101201.12
2018-04-06T23:24:39.628Z,101186.80
2018-04-06T23:27:10.846Z,101184.79
2018-04-06T23:29:42.370Z,101188.06
2018-04-06T23:32:13.330Z,101190.89
2018-04-06T23:34:43.196Z,101187.59
2018-04-06T23:37:13.831Z,101181.23
2018-04-06T23:39:44.679Z,101189.23
2018-04-06T23:42:15.478Z,101183.28
2018-04-06T23:44:46.535Z,101182.72
2018-04-06T23:47:17.499Z,101176.73
2018-04-06T23:49:48.281Z,101185.17
2018-04-06T23:52:19.637Z,101183.06
2018-04-06T23:54:50.481Z,101181.80
2018-04-06T23:57:22.253Z,101177.56
2018-04-06T23:59:52.080Z,101177.60
